createdAt,value
2018-12-06T08:32:11.797Z,28.12
2018-12-06T08:33:11.775Z,28.12
2018-12-06T08:34:11.774Z,28.12
2018-12-06T08:35:11.756Z,28.12
2018-12-06T08:36:11.744Z,28.12
2018-12-06T08:37:11.730Z,28.12
2018-12-06T08:38:12.376Z,28.12
2018-12-06T08:39:11.719Z,28.12
2018-12-06T08:40:11.696Z,28.12
2018-12-06T08:41:11.685Z,22.50
2018-12-06T08:42:11.678Z,22.50
2018-12-06T08:43:11.673Z,28.12
2018-12-06T08:44:11.680Z,28.12
2018-12-06T08:45:11.659Z,28.12
2018-12-06T08:46:11.636Z,28.12
2018-12-06T08:47:11.618Z,28.12
2018-12-06T08:48:11.635Z,28.12
2018-12-06T08:49:11.612Z,33.75
2018-12-06T08:50:11.612Z,39.38
2018-12-06T08:51:11.572Z,45.00
2018-12-06T08:52:11.560Z,45.00
2018-12-06T08:53:11.579Z,39.38
2018-12-06T08:54:11.628Z,45.00
2018-12-06T08:55:11.549Z,50.62
2018-12-06T08:56:11.541Z,56.25
2018-12-06T08:57:11.542Z,56.25
2018-12-06T08:58:11.493Z,61.88
2018-12-06T08:59:11.497Z,56.25
2018-12-06T09:00:11.479Z,61.88
2018-12-06T09:01:11.466Z,67.50
2018-12-06T09:02:11.450Z,84.38
2018-12-06T09:03:11.443Z,78.75
2018-12-06T09:04:11.440Z,84.38
2018-12-06T09:05:11.439Z,90.00
2018-12-06T09:06:11.405Z,95.62
2018-12-06T09:07:11.392Z,106.88
2018-12-06T09:08:11.384Z,118.12
2018-12-06T09:09:11.381Z,101.25
2018-12-06T09:10:11.374Z,101.25
2018-12-06T09:11:11.360Z,106.88
2018-12-06T09:12:11.358Z,118.12
2018-12-06T09:13:11.338Z,123.75
2018-12-06T09:14:11.328Z,123.75
2018-12-06T09:15:11.305Z,129.38
2018-12-06T09:16:11.293Z,129.38
2018-12-06T09:17:11.289Z,123.75
2018-12-06T09:18:11.271Z,118.12
2018-12-06T09:19:11.277Z,112.50
2018-12-06T09:20:11.248Z,112.50
2018-12-06T09:21:11.245Z,112.50
2018-12-06T09:22:11.232Z,112.50
2018-12-06T09:23:11.214Z,118.12
2018-12-06T09:24:11.220Z,123.75
2018-12-06T09:25:11.206Z,118.12
2018-12-06T09:26:11.181Z,112.50
2018-12-06T09:27:11.171Z,106.88
2018-12-06T09:28:11.168Z,112.50
2018-12-06T09:29:11.174Z,118.12
2018-12-06T09:30:11.136Z,118.12
2018-12-06T09:31:11.126Z,112.50
2018-12-06T09:32:11.113Z,112.50
2018-12-06T09:33:11.103Z,123.75
2018-12-06T09:34:11.103Z,129.38
2018-12-06T09:35:11.102Z,140.62
2018-12-06T09:36:11.069Z,146.25
2018-12-06T09:37:11.061Z,146.25
2018-12-06T09:38:11.050Z,146.25
2018-12-06T09:39:11.089Z,146.25
2018-12-06T09:40:11.025Z,140.62
2018-12-06T09:41:11.013Z,135.00
2018-12-06T09:42:11.007Z,135.00
2018-12-06T09:43:11.018Z,135.00
2018-12-06T09:44:11.001Z,135.00
2018-12-06T09:45:10.979Z,129.38
2018-12-06T09:46:10.963Z,123.75
2018-12-06T09:47:10.945Z,118.12
2018-12-06T09:48:10.941Z,112.50
2018-12-06T09:49:10.940Z,112.50
2018-12-06T09:50:10.919Z,106.88
2018-12-06T09:51:10.898Z,112.50
2018-12-06T09:52:10.888Z,112.50
2018-12-06T09:53:10.877Z,112.50
2018-12-06T09:54:10.867Z,112.50
2018-12-06T09:55:10.864Z,112.50
2018-12-06T09:56:10.841Z,106.88
2018-12-06T09:57:10.831Z,101.25
2018-12-06T09:58:10.825Z,101.25
2018-12-06T09:59:10.815Z,95.62
2018-12-06T10:00:10.824Z,95.62
2018-12-06T10:01:10.796Z,101.25
2018-12-06T10:02:10.772Z,101.25
2018-12-06T10:03:10.770Z,101.25
2018-12-06T10:04:10.779Z,101.25
2018-12-06T10:05:10.756Z,95.62
2018-12-06T10:06:10.730Z,90.00
2018-12-06T10:07:10.715Z,78.75
2018-12-06T10:08:10.721Z,67.50
2018-12-06T10:09:10.695Z,61.88
2018-12-06T10:10:10.691Z,67.50
2018-12-06T10:11:10.675Z,73.12
2018-12-06T10:12:10.665Z,67.50
2018-12-06T10:13:10.647Z,67.50
2018-12-06T10:14:10.663Z,61.88
2018-12-06T10:15:10.695Z,56.25
2018-12-06T10:16:10.640Z,56.25
2018-12-06T10:17:10.603Z,56.25
2018-12-06T10:18:10.592Z,56.25
2018-12-06T10:19:10.586Z,61.88
2018-12-06T10:20:10.591Z,56.25
2018-12-06T10:21:10.570Z,56.25
2018-12-06T10:22:10.562Z,61.88
2018-12-06T10:23:10.534Z,61.88
2018-12-06T10:24:10.525Z,61.88
2018-12-06T10:25:10.523Z,61.88
2018-12-06T10:26:10.518Z,67.50
2018-12-06T10:27:10.488Z,73.12
2018-12-06T10:28:10.480Z,67.50
2018-12-06T10:29:10.473Z,61.88
2018-12-06T10:30:10.466Z,56.25
2018-12-06T10:31:10.446Z,56.25
2018-12-06T10:32:10.440Z,56.25
2018-12-06T10:33:10.419Z,50.62
2018-12-06T10:34:10.414Z,50.62
2018-12-06T10:35:10.414Z,45.00
2018-12-06T10:36:10.387Z,39.38
2018-12-06T10:37:10.385Z,39.38
2018-12-06T10:38:10.367Z,39.38
2018-12-06T10:39:10.350Z,45.00
2018-12-06T10:40:10.350Z,39.38
2018-12-06T10:43:28.056Z,45.00
2018-12-06T10:44:28.038Z,39.38
2018-12-06T10:45:28.038Z,50.62
2018-12-06T10:49:54.940Z,67.50
2018-12-06T10:50:54.697Z,78.75
2018-12-06T10:51:54.677Z,78.75
2018-12-06T10:52:54.663Z,73.12
2018-12-06T10:53:54.650Z,67.50
2018-12-06T10:54:54.640Z,61.88
2018-12-06T10:55:54.642Z,61.88
2018-12-06T10:56:54.712Z,56.25
2018-12-06T10:57:54.604Z,56.25
2018-12-06T10:58:54.606Z,56.25
2018-12-06T10:59:54.585Z,61.88
2018-12-06T11:00:57.421Z,61.88
2018-12-06T11:04:12.263Z,67.50
2018-12-06T11:05:12.251Z,73.12
2018-12-06T11:06:12.253Z,67.50
2018-12-06T11:07:12.229Z,73.12
2018-12-06T11:08:12.219Z,78.75
2018-12-06T11:09:12.208Z,73.12
2018-12-06T11:10:12.196Z,61.88
2018-12-06T11:11:12.514Z,73.12
2018-12-06T11:12:12.194Z,61.88
2018-12-06T11:13:12.184Z,56.25
2018-12-06T11:14:12.167Z,56.25
2018-12-06T11:15:12.137Z,50.62
2018-12-06T11:16:12.146Z,56.25
2018-12-06T11:17:12.120Z,61.88
2018-12-06T11:18:12.103Z,56.25
2018-12-06T11:19:12.107Z,61.88
2018-12-06T11:20:12.083Z,73.12
2018-12-06T11:21:12.082Z,78.75
2018-12-06T11:22:12.062Z,78.75
2018-12-06T11:23:12.056Z,84.38
2018-12-06T11:25:42.012Z,101.25
2018-12-06T11:26:20.760Z,101.25
2018-12-06T11:27:20.738Z,106.88
2018-12-06T11:28:20.754Z,101.25
2018-12-06T11:29:20.719Z,95.62
2018-12-06T11:30:20.711Z,118.12
2018-12-06T11:33:30.396Z,118.12
2018-12-06T11:34:30.387Z,129.38
2018-12-06T11:35:30.374Z,135.00
2018-12-06T11:36:30.378Z,129.38
2018-12-06T11:37:30.354Z,135.00
2018-12-06T12:07:34.434Z,174.38
2018-12-06T12:08:11.658Z,168.75
2018-12-06T12:09:11.674Z,163.12
2018-12-06T12:10:11.659Z,157.50
2018-12-06T12:11:11.623Z,163.12
2018-12-06T12:12:11.625Z,157.50
2018-12-06T12:13:11.599Z,163.12
2018-12-06T12:14:11.596Z,163.12
2018-12-06T12:15:11.577Z,157.50
2018-12-06T12:16:11.570Z,163.12
2018-12-06T12:17:11.566Z,163.12
2018-12-06T12:18:11.542Z,151.88
2018-12-06T12:19:11.534Z,140.62
2018-12-06T12:20:11.528Z,140.62
2018-12-06T12:21:11.532Z,151.88
2018-12-06T12:22:11.522Z,157.50
2018-12-06T12:23:11.489Z,157.50
2018-12-06T12:24:11.477Z,174.38
2018-12-06T12:25:11.466Z,180.00
2018-12-06T12:26:11.491Z,168.75
2018-12-06T12:27:11.465Z,174.38
2018-12-06T12:28:11.507Z,180.00
2018-12-06T12:29:11.421Z,157.50
2018-12-06T12:30:11.437Z,151.88
2018-12-06T12:31:11.404Z,151.88
2018-12-06T12:32:11.428Z,151.88
2018-12-06T12:33:11.375Z,168.75
2018-12-06T12:34:11.365Z,157.50
2018-12-06T12:35:11.357Z,157.50
2018-12-06T12:36:11.346Z,163.12
2018-12-06T12:37:11.344Z,151.88
2018-12-06T12:38:11.324Z,135.00
2018-12-06T12:39:11.309Z,135.00
2018-12-06T12:40:11.300Z,123.75
2018-12-06T12:41:11.302Z,112.50
2018-12-06T12:42:11.302Z,112.50
2018-12-06T12:43:11.278Z,118.12
2018-12-06T12:44:11.261Z,118.12
2018-12-06T12:45:11.246Z,112.50
2018-12-06T12:46:11.236Z,95.62
2018-12-06T12:47:11.218Z,90.00
2018-12-06T12:48:11.225Z,90.00
2018-12-06T12:49:11.215Z,78.75
2018-12-06T12:50:11.186Z,90.00
2018-12-06T12:51:11.183Z,90.00
2018-12-06T12:52:11.169Z,73.12
2018-12-06T12:53:11.172Z,73.12
2018-12-06T12:56:44.077Z,78.75
2018-12-06T12:57:28.833Z,84.38
2018-12-06T12:58:28.812Z,78.75
2018-12-06T12:59:28.798Z,73.12
2018-12-06T13:00:28.801Z,73.12
2018-12-06T13:01:29.572Z,73.12
2018-12-06T13:03:37.481Z,84.38
2018-12-06T13:04:37.462Z,67.50
2018-12-06T13:05:37.470Z,56.25
2018-12-06T13:06:37.443Z,50.62
2018-12-06T13:07:37.449Z,39.38
2018-12-06T13:08:37.450Z,39.38
2018-12-06T13:09:37.405Z,61.88
2018-12-06T13:10:37.408Z,67.50
2018-12-06T13:13:55.060Z,73.12
2018-12-06T13:16:24.795Z,90.00
2018-12-06T13:17:03.515Z,84.38
2018-12-06T13:18:03.514Z,84.38
2018-12-06T13:19:03.505Z,73.12
2018-12-06T13:21:12.448Z,90.00
2018-12-06T13:22:12.198Z,106.88
2018-12-06T13:23:12.212Z,101.25
2018-12-06T13:24:12.180Z,106.88
2018-12-06T13:25:12.189Z,106.88
2018-12-06T13:26:12.158Z,112.50
2018-12-06T13:27:12.156Z,106.88
2018-12-06T13:28:12.147Z,106.88
2018-12-06T13:29:12.136Z,106.88
2018-12-06T14:39:08.856Z,11.25
2018-12-06T14:39:52.590Z,11.25
2018-12-06T14:40:52.580Z,11.25
2018-12-06T14:41:52.572Z,5.62
2018-12-06T14:42:52.573Z,5.62
2018-12-06T14:43:41.712Z,5.62
2018-12-06T14:44:41.711Z,11.25
2018-12-06T14:45:41.673Z,11.25
2018-12-06T14:46:41.663Z,11.25
2018-12-06T14:47:41.650Z,5.62
2018-12-06T14:48:41.643Z,5.62
2018-12-06T14:52:31.854Z,5.62
2018-12-06T14:52:59.043Z,5.62
2018-12-06T14:53:59.042Z,5.62
2018-12-06T14:54:59.031Z,0.00
2018-12-06T14:55:59.029Z,0.00
2018-12-06T14:59:16.712Z,0.00
2018-12-06T15:00:16.681Z,0.00
2018-12-06T15:01:16.676Z,5.62
2018-12-06T15:02:16.664Z,5.62
2018-12-06T15:05:34.339Z,5.62
2018-12-06T15:06:37.537Z,5.62
2018-12-06T15:09:19.032Z,0.00
2018-12-06T15:09:42.801Z,0.00
2018-12-06T15:10:42.774Z,5.62
2018-12-06T15:11:42.764Z,5.62
2018-12-06T15:12:42.749Z,5.62
2018-12-06T15:13:42.740Z,5.62
2018-12-06T15:14:42.747Z,5.62
2018-12-06T15:15:42.725Z,0.00
2018-12-06T15:16:42.709Z,0.00
2018-12-06T15:17:42.699Z,0.00
2018-12-06T15:18:42.687Z,0.00
2018-12-06T15:19:42.684Z,0.00
2018-12-06T15:20:42.661Z,0.00
2018-12-06T15:21:42.664Z,0.00
2018-12-06T15:25:29.611Z,0.00
2018-12-06T15:26:00.346Z,0.00
2018-12-06T15:27:00.338Z,0.00
2018-12-06T15:28:00.322Z,0.00
2018-12-06T15:29:00.321Z,0.00
2018-12-06T15:30:00.317Z,0.00
2018-12-06T15:31:00.291Z,0.00
2018-12-06T15:32:00.288Z,0.00
2018-12-06T15:33:00.272Z,0.00
2018-12-06T15:34:00.276Z,0.00
2018-12-06T15:35:00.315Z,0.00
2018-12-06T15:36:00.234Z,0.00
2018-12-06T15:37:00.227Z,0.00
2018-12-06T15:38:00.214Z,0.00
2018-12-06T15:40:30.662Z,0.00
